createdAt,value
2024-04-15T00:00:02.031Z,110
2024-04-15T00:05:01.451Z,112
2024-04-15T00:10:01.888Z,111
2024-04-15T00:15:02.273Z,116
2024-04-15T00:20:01.729Z,110
2024-04-15T00:25:02.170Z,110
2024-04-15T00:30:01.552Z,110
2024-04-15T00:35:01.906Z,115
2024-04-15T00:40:01.330Z,111
2024-04-15T00:45:01.802Z,112
2024-04-15T00:50:02.166Z,112
2024-04-15T00:55:01.571Z,111
2024-04-15T01:00:01.933Z,109
2024-04-15T01:05:02.285Z,112
2024-04-15T01:10:01.761Z,112
2024-04-15T01:15:02.186Z,111
2024-04-15T01:20:01.603Z,112
2024-04-15T01:25:02.026Z,112
2024-04-15T01:30:01.402Z,112
2024-04-15T01:35:01.744Z,114
2024-04-15T01:40:02.147Z,113
2024-04-15T01:45:01.552Z,111
2024-04-15T01:50:01.884Z,113
2024-04-15T01:55:02.258Z,112
2024-04-15T02:00:01.605Z,111
2024-04-15T02:05:01.983Z,113
2024-04-15T02:10:01.397Z,112
2024-04-15T02:15:01.820Z,113
2024-04-15T02:20:02.235Z,113
2024-04-15T02:25:01.666Z,113
2024-04-15T02:30:02.077Z,112
2024-04-15T02:35:01.429Z,111
2024-04-15T02:40:01.837Z,111
2024-04-15T02:45:02.220Z,113
2024-04-15T02:50:01.684Z,111
2024-04-15T02:55:02.059Z,112
2024-04-15T03:00:01.422Z,113
2024-04-15T03:05:01.881Z,111
2024-04-15T03:10:01.402Z,113
2024-04-15T03:15:01.754Z,113
2024-04-15T03:20:02.152Z,113
2024-04-15T03:25:01.546Z,116
2024-04-15T03:30:01.979Z,113
2024-04-15T03:35:01.342Z,114
2024-04-15T03:40:01.953Z,111
2024-04-15T03:45:01.398Z,110
2024-04-15T03:50:01.780Z,114
2024-04-15T03:55:02.230Z,112
2024-04-15T04:00:01.658Z,111
2024-04-15T04:05:02.099Z,110
2024-04-15T04:10:01.570Z,112
2024-04-15T04:15:01.954Z,111
2024-04-15T04:20:01.380Z,110
2024-04-15T04:25:01.787Z,110
2024-04-15T04:30:01.709Z,112
2024-04-15T04:35:02.080Z,111
2024-04-15T04:40:01.598Z,108
2024-04-15T04:45:02.089Z,108
2024-04-15T04:50:01.434Z,110
2024-04-15T04:55:01.824Z,106
2024-04-15T05:00:02.245Z,107
2024-04-15T05:05:01.651Z,106
2024-04-15T05:10:02.070Z,110
2024-04-15T05:15:01.494Z,110
2024-04-15T05:20:01.906Z,112
2024-04-15T05:25:02.314Z,111
2024-04-15T05:30:01.697Z,113
2024-04-15T05:35:02.029Z,111
2024-04-15T05:40:01.478Z,109
2024-04-15T05:45:01.879Z,108
2024-04-15T05:50:02.214Z,105
2024-04-15T05:55:01.637Z,107
2024-04-15T06:00:02.009Z,106
2024-04-15T06:05:01.369Z,112
2024-04-15T06:10:01.810Z,114
2024-04-15T06:15:02.213Z,111
2024-04-15T06:20:01.734Z,111
2024-04-15T06:25:02.276Z,110
2024-04-15T06:30:01.644Z,110
2024-04-15T06:35:02.017Z,111
2024-04-15T06:40:01.479Z,110
2024-04-15T06:45:01.891Z,111
2024-04-15T06:50:02.222Z,113
2024-04-15T06:55:01.581Z,113
2024-04-15T07:00:01.995Z,110
2024-04-15T07:05:01.355Z,109
2024-04-15T07:10:01.871Z,110
2024-04-15T07:15:02.256Z,108
2024-04-15T07:20:01.687Z,108
2024-04-15T07:25:02.100Z,106
2024-04-15T07:30:01.449Z,107
2024-04-15T07:35:01.800Z,106
2024-04-15T07:40:03.620Z,111
2024-04-15T07:45:01.573Z,107
2024-04-15T07:50:01.998Z,108
2024-04-15T07:55:01.378Z,107
2024-04-15T08:00:01.775Z,105
2024-04-15T08:05:02.138Z,105
2024-04-15T08:10:01.597Z,107
2024-04-15T08:15:02.114Z,109
2024-04-15T08:20:01.603Z,106
2024-04-15T08:25:02.022Z,106
2024-04-15T08:30:01.484Z,107
2024-04-15T08:35:01.913Z,108
2024-04-15T08:40:02.330Z,106
2024-04-15T08:45:01.698Z,105
2024-04-15T08:50:02.028Z,104
2024-04-15T08:55:01.429Z,104
2024-04-15T09:00:01.905Z,104
2024-04-15T09:05:02.440Z,102
2024-04-15T09:10:02.050Z,101
2024-04-15T09:15:01.573Z,103
2024-04-15T09:20:02.010Z,101
2024-04-15T09:25:01.371Z,103
2024-04-15T09:30:01.774Z,101
2024-04-15T09:35:02.116Z,101
2024-04-15T09:40:01.574Z,103
2024-04-15T09:45:02.064Z,105
2024-04-15T09:50:01.421Z,101
2024-04-15T09:55:01.833Z,105
2024-04-15T10:00:02.180Z,106
2024-04-15T10:05:01.740Z,104
2024-04-15T10:10:02.331Z,105
2024-04-15T10:15:01.797Z,104
2024-04-15T10:20:01.888Z,105
2024-04-15T10:25:02.272Z,105
2024-04-15T10:30:01.679Z,106
2024-04-15T10:35:03.143Z,106
2024-04-15T10:40:01.863Z,106
2024-04-15T10:45:02.261Z,105
2024-04-15T10:50:01.714Z,103
2024-04-15T10:55:02.091Z,105
2024-04-15T11:00:01.489Z,104
2024-04-15T11:05:01.913Z,102
2024-04-15T11:10:01.434Z,107
2024-04-15T11:15:01.849Z,104
2024-04-15T11:20:02.299Z,106
2024-04-15T11:25:01.709Z,106
2024-04-15T11:30:04.852Z,106
2024-04-15T11:35:01.878Z,105
2024-04-15T11:40:02.332Z,104
2024-04-15T11:45:01.743Z,104
2024-04-15T11:50:02.092Z,108
2024-04-15T11:55:01.465Z,108
2024-04-15T12:00:01.861Z,108
2024-04-15T12:05:02.460Z,109
2024-04-15T12:10:01.995Z,106
2024-04-15T12:15:01.367Z,108
2024-04-15T12:20:01.806Z,107
2024-04-15T12:25:07.954Z,106
2024-04-15T12:30:01.870Z,105
2024-04-15T12:35:02.217Z,108
2024-04-15T12:40:01.659Z,107
2024-04-15T12:45:02.026Z,108
2024-04-15T12:50:01.402Z,107
2024-04-15T12:55:01.826Z,107
2024-04-15T13:00:02.229Z,106
2024-04-15T13:05:01.793Z,104
2024-04-15T13:10:01.331Z,105
2024-04-15T13:15:01.806Z,105
2024-04-15T13:20:02.258Z,105
2024-04-15T13:25:01.655Z,106
2024-04-15T13:30:02.035Z,105
2024-04-15T13:35:01.580Z,106
2024-04-15T13:40:02.357Z,108
2024-04-15T13:45:01.790Z,108
2024-04-15T13:50:02.140Z,107
2024-04-15T13:55:01.533Z,107
2024-04-15T14:00:02.019Z,108
2024-04-15T14:05:01.701Z,107
2024-04-15T14:10:02.349Z,107
2024-04-15T14:15:01.747Z,108
2024-04-15T14:20:02.174Z,107
2024-04-15T14:25:01.597Z,105
2024-04-15T14:30:02.068Z,108
2024-04-15T14:35:02.844Z,106
2024-04-15T14:40:11.923Z,108
2024-04-15T14:45:01.398Z,108
2024-04-15T14:50:01.755Z,106
2024-04-15T14:55:02.122Z,107
2024-04-15T15:00:01.552Z,108
2024-04-15T15:05:01.902Z,107
2024-04-15T15:10:01.303Z,111
2024-04-15T15:15:01.732Z,111
2024-04-15T15:20:02.153Z,109
2024-04-15T15:25:01.514Z,108
2024-04-15T15:30:01.875Z,109
2024-04-15T15:35:02.225Z,107
2024-04-15T15:40:01.599Z,107
2024-04-15T15:45:01.956Z,109
2024-04-15T15:50:01.283Z,103
2024-04-15T15:55:01.629Z,109
2024-04-15T16:00:01.990Z,106
2024-04-15T16:05:01.456Z,105
2024-04-15T16:10:02.011Z,106
2024-04-15T16:15:01.478Z,104
2024-04-15T16:20:01.894Z,107
2024-04-15T16:25:02.284Z,107
2024-04-15T16:30:01.672Z,109
2024-04-15T16:35:01.999Z,110
2024-04-15T16:40:01.468Z,109
2024-04-15T16:45:01.833Z,108
2024-04-15T16:50:02.207Z,112
2024-04-15T16:55:01.571Z,110
2024-04-15T17:00:01.981Z,113
2024-04-15T17:05:01.347Z,113
2024-04-15T17:10:01.799Z,113
2024-04-15T17:15:02.200Z,114
2024-04-15T17:20:01.620Z,113
2024-04-15T17:25:02.126Z,111
2024-04-15T17:30:01.565Z,114
2024-04-15T17:35:01.915Z,110
2024-04-15T17:40:01.396Z,112
2024-04-15T17:45:01.780Z,115
2024-04-15T17:50:02.119Z,112
2024-04-15T17:55:01.489Z,111
2024-04-15T18:00:01.969Z,112
2024-04-15T18:05:01.488Z,113
2024-04-15T18:10:02.018Z,112
2024-04-15T18:15:01.424Z,113
2024-04-15T18:20:01.891Z,115
2024-04-15T18:25:02.295Z,115
2024-04-15T18:30:01.749Z,116
2024-04-15T18:35:02.099Z,114
2024-04-15T18:40:01.648Z,113
2024-04-15T18:45:04.667Z,115
2024-04-15T18:50:01.385Z,117
2024-04-15T18:55:01.762Z,115
2024-04-15T19:00:02.170Z,115
2024-04-15T19:05:01.516Z,116
2024-04-15T19:10:01.931Z,115
2024-04-15T19:15:11.865Z,116
2024-04-15T19:20:02.289Z,116
2024-04-15T19:25:01.700Z,115
2024-04-15T19:30:02.094Z,118
2024-04-15T19:35:01.438Z,118
2024-04-15T19:40:01.874Z,117
2024-04-15T19:45:02.283Z,118
2024-04-15T19:50:01.659Z,116
2024-04-15T19:55:02.042Z,116
2024-04-15T20:00:01.450Z,120
2024-04-15T20:05:01.961Z,120
2024-04-15T20:10:01.553Z,116
2024-04-15T20:15:01.914Z,114
2024-04-15T20:20:01.342Z,115
2024-04-15T20:25:01.711Z,116
2024-04-15T20:30:02.117Z,115
2024-04-15T20:35:01.637Z,116
2024-04-15T20:40:02.199Z,114
2024-04-15T20:45:01.596Z,117
2024-04-15T20:50:02.013Z,117
2024-04-15T20:55:01.420Z,114
2024-04-15T21:00:01.824Z,114
2024-04-15T21:05:02.427Z,112
2024-04-15T21:10:02.054Z,112
2024-04-15T21:15:01.503Z,114
2024-04-15T21:20:01.921Z,113
2024-04-15T21:25:02.321Z,110
2024-04-15T21:30:01.726Z,109
2024-04-15T21:35:02.111Z,111
2024-04-15T21:40:01.614Z,109
2024-04-15T21:45:02.089Z,111
2024-04-15T21:50:01.470Z,109
2024-04-15T21:55:01.871Z,109
2024-04-15T22:00:01.411Z,110
2024-04-15T22:05:02.572Z,111
2024-04-15T22:10:02.205Z,111
2024-04-15T22:15:01.687Z,111
2024-04-15T22:20:02.049Z,103
2024-04-15T22:25:01.423Z,108
2024-04-15T22:30:01.809Z,109
2024-04-15T22:35:02.176Z,107
2024-04-15T22:40:01.570Z,105
2024-04-15T22:45:01.968Z,110
2024-04-15T22:50:01.295Z,109
2024-04-15T22:55:01.705Z,111
2024-04-15T23:00:02.081Z,111
2024-04-15T23:05:01.423Z,111
2024-04-15T23:10:01.898Z,116
2024-04-15T23:15:02.303Z,114
2024-04-15T23:20:01.710Z,113
2024-04-15T23:25:02.069Z,112
2024-04-15T23:30:01.491Z,114
2024-04-15T23:35:01.859Z,116
2024-04-15T23:40:02.437Z,115
2024-04-15T23:45:01.894Z,116
2024-04-15T23:50:02.219Z,114
2024-04-15T23:55:01.604Z,116
